Time;durP1;ratioP1;P1;durP2;ratioP2;P2;SDS_P1;SDS_P2;PMS_P1;PMS_P2;Temp;Humidity;BMP_temperature;BMP_pressure;BME280_temperature;BME280_humidity;BME280_pressure;Samples;Min_cycle;Max_cycle;Signal;HPM_P1;HPM_P2
2021/07/14 00:01:51;;;;;;;25.10;18.55;;;21.70;99.90;;;;;;4955056;29;20038;-82
2021/07/14 00:04:16;;;;;;;22.63;18.30;;;21.70;99.90;;;;;;4954169;28;20047;-82
2021/07/14 00:06:42;;;;;;;21.30;17.95;;;21.70;99.90;;;;;;4954993;29;20477;-82
2021/07/14 00:09:09;;;;;;;19.17;16.80;;;21.70;99.90;;;;;;4954976;29;20031;-83
2021/07/14 00:11:40;;;;;;;22.98;19.15;;;21.60;99.90;;;;;;4969871;28;20102;-82
2021/07/14 00:14:28;;;;;;;20.15;17.50;;;21.60;99.90;;;;;;4954978;29;20073;-81
2021/07/14 00:22:14;;;;;;;23.00;18.48;;;21.50;99.90;;;;;;4954959;29;20398;-82
2021/07/14 00:24:40;;;;;;;21.63;18.02;;;21.50;99.90;;;;;;4937377;29;20035;-82
2021/07/14 00:27:08;;;;;;;19.45;17.17;;;21.50;99.90;;;;;;4954753;29;20046;-82
2021/07/14 00:29:37;;;;;;;20.38;17.20;;;21.50;99.90;;;;;;4937339;29;20081;-82
2021/07/14 00:32:04;;;;;;;22.10;17.38;;;21.60;99.90;;;;;;4954785;29;20023;-82
2021/07/14 00:34:30;;;;;;;20.75;17.90;;;21.50;99.90;;;;;;4969572;28;20200;-82
2021/07/14 00:36:56;;;;;;;20.75;18.27;;;21.50;99.90;;;;;;4969463;28;20030;-82
2021/07/14 00:39:22;;;;;;;24.77;17.45;;;21.50;99.90;;;;;;4937554;29;20027;-82
2021/07/14 00:41:47;;;;;;;21.13;17.02;;;21.50;99.90;;;;;;4954447;29;20038;-82
2021/07/14 00:44:13;;;;;;;18.88;16.67;;;21.50;99.90;;;;;;4952513;28;20034;-81
2021/07/14 00:46:40;;;;;;;23.77;18.38;;;21.50;99.90;;;;;;4973436;28;20106;-82
2021/07/14 00:49:06;;;;;;;22.00;17.80;;;21.40;99.90;;;;;;4973831;28;20026;-82
2021/07/14 00:51:32;;;;;;;21.38;16.33;;;21.50;99.90;;;;;;4956550;28;20103;-82
2021/07/14 00:53:59;;;;;;;20.90;17.40;;;21.50;99.90;;;;;;4973690;28;20496;-82
2021/07/14 00:56:26;;;;;;;23.85;17.40;;;21.50;99.90;;;;;;4961705;28;20019;-82
2021/07/14 00:58:54;;;;;;;23.05;17.00;;;21.50;99.90;;;;;;4975679;28;20076;-82
2021/07/14 01:01:20;;;;;;;21.38;16.85;;;21.50;99.90;;;;;;4975659;28;20471;-82
2021/07/14 01:04:07;;;;;;;23.35;16.80;;;21.50;99.90;;;;;;4975516;28;20134;-81
2021/07/14 01:06:49;;;;;;;19.63;16.80;;;21.50;99.90;;;;;;4975776;28;20030;-82
2021/07/14 01:09:18;;;;;;;25.52;16.02;;;21.50;99.90;;;;;;4993238;28;20082;-81
2021/07/14 01:11:45;;;;;;;18.65;16.77;;;21.50;99.90;;;;;;4975850;28;20114;-81
2021/07/14 01:14:27;;;;;;;22.63;17.55;;;21.50;99.90;;;;;;4975597;28;20113;-81
2021/07/14 01:17:03;;;;;;;25.60;17.35;;;21.50;99.90;;;;;;4996827;28;20034;-81
2021/07/14 01:19:56;;;;;;;21.75;17.33;;;21.40;99.90;;;;;;4979142;28;20073;-81
2021/07/14 01:22:43;;;;;;;25.08;18.98;;;21.40;99.90;;;;;;4979315;28;20570;-81
2021/07/14 01:25:24;;;;;;;19.60;16.83;;;21.40;99.90;;;;;;4996518;28;20035;-81
2021/07/14 01:27:51;;;;;;;19.65;16.52;;;21.40;99.90;;;;;;4996520;28;20033;-82
2021/07/14 01:30:17;;;;;;;23.60;17.42;;;21.30;99.90;;;;;;4979351;28;20557;-81
2021/07/14 01:32:44;;;;;;;25.67;18.25;;;21.30;99.90;;;;;;4978973;28;20023;-82
2021/07/14 01:35:25;;;;;;;21.23;17.40;;;21.30;99.90;;;;;;4996423;28;20025;-82
2021/07/14 01:37:52;;;;;;;19.83;17.30;;;21.30;99.90;;;;;;4978904;28;20084;-82
2021/07/14 01:40:21;;;;;;;24.23;18.02;;;21.30;99.90;;;;;;4978990;28;20631;-81
2021/07/14 01:42:52;;;;;;;19.88;17.33;;;21.30;99.90;;;;;;4995729;28;20019;-81
2021/07/14 01:45:18;;;;;;;19.30;17.27;;;21.30;99.90;;;;;;4996315;28;20504;-81
2021/07/14 01:47:46;;;;;;;21.02;16.42;;;21.30;99.90;;;;;;4978715;28;20030;-81
2021/07/14 01:50:12;;;;;;;20.40;16.38;;;21.30;99.90;;;;;;4996160;28;20036;-81
2021/07/14 01:52:40;;;;;;;22.42;17.38;;;21.20;99.90;;;;;;4978634;28;20015;-82
2021/07/14 01:55:08;;;;;;;18.60;16.45;;;21.30;99.90;;;;;;4978572;28;20027;-82
2021/07/14 01:57:37;;;;;;;19.40;17.00;;;21.20;99.90;;;;;;4981347;28;20102;-82
2021/07/14 02:00:09;;;;;;;24.70;17.73;;;21.20;99.90;;;;;;4959274;28;20023;-81
2021/07/14 02:02:42;;;;;;;;;;;21.20;99.90;;;;;;4976960;28;20065;-81
2021/07/14 02:05:08;;;;;;;20.85;17.05;;;21.10;99.90;;;;;;4959166;28;19964;-82
2021/07/14 02:07:35;;;;;;;24.88;17.23;;;21.20;99.90;;;;;;4976346;28;20033;-82
2021/07/14 02:10:01;;;;;;;20.63;16.90;;;21.20;99.90;;;;;;4958995;28;20023;-82
2021/07/14 02:12:29;;;;;;;21.65;16.73;;;21.10;99.90;;;;;;4976416;28;20030;-82
2021/07/14 02:15:04;;;;;;;22.73;17.17;;;21.10;99.90;;;;;;4958777;28;20547;-82
2021/07/14 02:17:46;;;;;;;25.02;19.00;;;21.10;99.90;;;;;;4959025;28;20030;-82
2021/07/14 02:20:15;;;;;;;22.85;18.27;;;21.00;99.90;;;;;;4976226;28;20458;-82
2021/07/14 02:22:41;;;;;;;26.90;16.92;;;21.00;99.90;;;;;;4958757;28;20018;-82
2021/07/14 02:25:09;;;;;;;21.90;18.25;;;21.00;99.90;;;;;;4958700;28;20035;-81
2021/07/14 02:27:35;;;;;;;25.73;17.60;;;20.90;99.90;;;;;;4975071;28;20027;-81
2021/07/14 02:30:01;;;;;;;19.95;17.65;;;20.90;99.90;;;;;;4976380;28;20030;-82
2021/07/14 02:32:27;;;;;;;25.58;17.42;;;20.90;99.90;;;;;;4958683;28;20022;-82
2021/07/14 02:34:54;;;;;;;20.83;17.25;;;20.80;99.90;;;;;;4975827;28;20034;-81
2021/07/14 02:37:41;;;;;;;23.00;17.02;;;20.80;99.90;;;;;;4958659;28;20027;-81
2021/07/14 02:40:08;;;;;;;21.33;15.90;;;20.80;99.90;;;;;;4975787;28;20022;-82
2021/07/14 02:42:37;;;;;;;19.75;16.52;;;20.80;99.90;;;;;;4975822;28;20015;-81
2021/07/14 02:45:05;;;;;;;27.25;18.02;;;20.80;99.90;;;;;;4958253;28;20034;-82
2021/07/14 02:47:41;;;;;;;24.75;17.75;;;20.70;99.90;;;;;;4958433;28;20113;-81
2021/07/14 02:50:20;;;;;;;22.75;16.90;;;20.70;99.90;;;;;;4975748;28;20029;-81
2021/07/14 02:52:49;;;;;;;20.92;16.77;;;20.70;99.90;;;;;;4975615;28;20099;-81
2021/07/14 02:55:19;;;;;;;19.30;16.23;;;20.70;99.90;;;;;;4958118;28;20033;-82
2021/07/14 02:57:49;;;;;;;26.30;18.42;;;20.80;99.90;;;;;;4991558;28;20026;-82
2021/07/14 03:00:15;;;;;;;20.98;16.13;;;20.70;99.90;;;;;;4993630;28;20019;-81
2021/07/14 03:02:42;;;;;;;20.98;17.67;;;20.70;99.90;;;;;;4956087;29;20106;-81
2021/07/14 03:05:09;;;;;;;19.45;17.35;;;20.80;99.90;;;;;;4955973;29;20050;-82
2021/07/14 03:07:36;;;;;;;23.42;17.27;;;20.70;99.90;;;;;;4956067;29;20051;-82
2021/07/14 03:10:04;;;;;;;23.50;15.40;;;20.80;99.90;;;;;;4954811;28;20503;-82
2021/07/14 03:12:30;;;;;;;21.30;15.70;;;20.80;99.90;;;;;;4955821;29;20027;-82
2021/07/14 03:15:01;;;;;;;20.05;15.15;;;20.90;99.90;;;;;;4954478;28;20035;-82
2021/07/14 03:17:31;;;;;;;18.98;16.23;;;21.00;99.90;;;;;;4955946;29;20054;-82
2021/07/14 03:19:58;;;;;;;24.90;17.42;;;21.10;99.90;;;;;;4955669;29;20031;-82
2021/07/14 03:22:27;;;;;;;21.05;16.00;;;21.10;99.90;;;;;;4955807;29;20070;-82
2021/07/14 03:24:55;;;;;;;20.58;15.98;;;21.20;99.90;;;;;;4955572;29;20086;-82
2021/07/14 03:27:21;;;;;;;18.88;15.75;;;21.20;99.90;;;;;;4938467;29;20470;-81
2021/07/14 03:29:49;;;;;;;20.30;16.38;;;21.20;99.90;;;;;;4955973;29;20097;-81
2021/07/14 03:32:17;;;;;;;20.13;16.50;;;21.30;99.90;;;;;;4955458;29;20031;-81
2021/07/14 03:34:43;;;;;;;19.25;14.25;;;21.30;99.90;;;;;;4938190;29;20035;-81
2021/07/14 03:37:09;;;;;;;19.65;15.52;;;21.40;99.90;;;;;;4938240;29;20034;-81
2021/07/14 03:39:37;;;;;;;19.77;16.10;;;21.40;99.90;;;;;;4938118;29;20027;-81
2021/07/14 03:42:05;;;;;;;20.17;15.32;;;21.40;99.90;;;;;;4938250;29;20086;-82
2021/07/14 03:44:32;;;;;;;20.85;16.95;;;21.40;99.90;;;;;;4955467;29;20405;-81
2021/07/14 03:46:59;;;;;;;18.85;15.68;;;21.50;99.90;;;;;;4955204;29;20020;-81
2021/07/14 03:49:26;;;;;;;21.15;16.13;;;21.50;99.90;;;;;;4955251;29;20102;-81
2021/07/14 03:51:52;;;;;;;19.98;15.32;;;21.60;99.90;;;;;;4937794;29;20090;-81
2021/07/14 03:54:19;;;;;;;19.45;15.38;;;21.60;99.90;;;;;;4953955;28;20089;-82
2021/07/14 03:56:46;;;;;;;19.13;16.05;;;21.70;99.90;;;;;;4969316;28;20500;-81
2021/07/14 03:59:12;;;;;;;19.45;14.95;;;21.70;99.90;;;;;;4992415;28;20045;-81
2021/07/14 04:01:38;;;;;;;17.55;15.65;;;21.70;99.90;;;;;;4975704;28;20014;-81
2021/07/14 04:04:06;;;;;;;22.65;16.00;;;21.80;99.90;;;;;;4992424;28;20034;-81
2021/07/14 04:06:35;;;;;;;20.08;15.65;;;21.80;99.90;;;;;;4976153;28;20014;-81
2021/07/14 04:09:10;;;;;;;20.05;15.07;;;21.90;99.90;;;;;;4993702;28;20030;-81
2021/07/14 04:11:36;;;;;;;18.92;15.82;;;22.00;99.90;;;;;;4976256;28;20383;-82
2021/07/14 04:14:01;;;;;;;25.88;16.20;;;22.00;99.90;;;;;;4969379;28;20030;-81
2021/07/14 04:16:29;;;;;;;21.58;16.67;;;22.10;99.90;;;;;;4971292;28;20027;-81
2021/07/14 04:18:54;;;;;;;24.58;16.45;;;22.10;99.90;;;;;;4970720;28;20023;-81
2021/07/14 04:21:20;;;;;;;17.98;15.95;;;22.20;99.90;;;;;;4970737;28;20392;-82
2021/07/14 04:23:46;;;;;;;23.10;17.05;;;22.20;99.90;;;;;;4970664;28;20393;-81
2021/07/14 04:26:11;;;;;;;19.95;16.40;;;22.20;99.90;;;;;;4956392;28;20034;-81
2021/07/14 04:28:37;;;;;;;24.35;17.00;;;22.30;99.90;;;;;;4973860;28;20039;-81
2021/07/14 04:31:03;;;;;;;20.83;16.02;;;22.30;99.90;;;;;;4973993;28;20385;-81
2021/07/14 04:33:28;;;;;;;19.80;16.55;;;22.40;99.90;;;;;;4973982;28;20030;-81
2021/07/14 04:35:54;;;;;;;21.25;15.93;;;22.60;99.90;;;;;;4973950;28;20499;-81
2021/07/14 04:38:21;;;;;;;17.85;15.80;;;22.70;99.90;;;;;;4973924;28;20097;-82
2021/07/14 04:40:47;;;;;;;20.23;16.63;;;22.80;99.90;;;;;;4956503;28;20019;-81
2021/07/14 04:43:13;;;;;;;21.85;15.70;;;23.00;99.90;;;;;;4972656;28;20034;-81
2021/07/14 04:45:38;;;;;;;22.08;17.00;;;23.00;99.90;;;;;;4956282;28;20027;-81
2021/07/14 04:48:05;;;;;;;22.42;17.13;;;23.20;99.90;;;;;;4973973;28;20495;-82
2021/07/14 04:50:31;;;;;;;25.55;16.67;;;23.30;99.90;;;;;;4975705;28;20019;-82
2021/07/14 04:52:57;;;;;;;25.35;17.90;;;23.40;99.90;;;;;;4976840;28;20561;-82
2021/07/14 04:55:22;;;;;;;20.90;16.52;;;23.50;99.90;;;;;;4977670;28;20046;-82
2021/07/14 04:57:48;;;;;;;21.10;16.10;;;23.70;99.90;;;;;;4994210;28;20030;-82
2021/07/14 05:00:16;;;;;;;25.25;16.58;;;23.80;99.90;;;;;;4979610;28;20487;-82
2021/07/14 05:02:46;;;;;;;21.25;15.50;;;23.90;99.90;;;;;;4979580;28;20037;-81
2021/07/14 05:05:15;;;;;;;17.13;15.02;;;24.00;99.90;;;;;;4994981;28;20038;-82
2021/07/14 05:07:42;;;;;;;24.30;16.27;;;24.20;99.90;;;;;;4995198;28;20080;-81
2021/07/14 05:10:09;;;;;;;24.48;16.85;;;24.30;99.90;;;;;;4994995;28;20112;-82
2021/07/14 05:12:35;;;;;;;20.63;16.67;;;24.40;99.90;;;;;;4977317;28;20042;-81
2021/07/14 05:15:00;;;;;;;18.75;16.50;;;24.70;99.90;;;;;;4994838;28;20677;-82
2021/07/14 05:17:26;;;;;;;24.05;16.40;;;24.70;95.60;;;;;;4986878;28;20034;-82
2021/07/14 05:19:53;;;;;;;19.42;16.90;;;24.90;96.40;;;;;;4976826;28;20436;-82
2021/07/14 05:22:20;;;;;;;22.58;15.35;;;25.00;93.70;;;;;;4960013;28;20027;-82
2021/07/14 05:24:46;;;;;;;33.75;16.75;;;25.10;93.90;;;;;;4977047;28;20039;-82
2021/07/14 05:27:11;;;;;;;22.00;15.43;;;25.30;95.00;;;;;;4992101;28;20111;-81
2021/07/14 05:29:37;;;;;;;20.92;15.93;;;25.40;92.00;;;;;;4992426;28;20069;-81
2021/07/14 05:32:04;;;;;;;20.70;15.60;;;25.50;91.80;;;;;;4996568;28;20414;-81
2021/07/14 05:34:30;;;;;;;21.77;16.60;;;25.60;91.60;;;;;;4978961;28;20031;-82
2021/07/14 05:36:55;;;;;;;23.75;16.83;;;25.70;91.00;;;;;;4996467;28;20035;-82
2021/07/14 05:39:21;;;;;;;18.85;16.23;;;25.70;87.40;;;;;;4996336;28;20022;-81
2021/07/14 05:41:47;;;;;;;21.95;15.48;;;25.80;86.60;;;;;;4978847;28;20019;-81
2021/07/14 05:44:13;;;;;;;16.80;15.00;;;25.90;87.10;;;;;;4996183;28;20096;-81
2021/07/14 05:46:38;;;;;;;24.70;17.23;;;26.00;84.40;;;;;;4974709;28;20123;-81
2021/07/14 05:49:04;;;;;;;19.15;16.45;;;26.00;90.90;;;;;;4972206;28;20019;-82
2021/07/14 05:51:32;;;;;;;19.98;17.25;;;26.00;92.30;;;;;;4940194;29;20524;-81
2021/07/14 05:53:58;;;;;;;21.10;15.45;;;26.00;91.60;;;;;;4958515;28;20034;-81
2021/07/14 05:56:24;;;;;;;19.88;15.93;;;26.00;90.80;;;;;;4969337;28;20023;-81
2021/07/14 05:58:49;;;;;;;20.42;17.15;;;26.10;94.30;;;;;;4950288;28;20030;-81
2021/07/14 06:01:15;;;;;;;22.30;16.23;;;26.20;94.90;;;;;;4966154;28;20079;-81
2021/07/14 06:03:41;;;;;;;19.10;16.17;;;26.30;90.30;;;;;;4965245;28;20069;-81
2021/07/14 06:06:07;;;;;;;17.98;15.82;;;26.30;85.70;;;;;;4949289;28;20392;-79
2021/07/14 06:08:33;;;;;;;17.52;15.85;;;26.40;86.00;;;;;;4944805;29;20035;-78
2021/07/14 06:10:59;;;;;;;21.00;16.70;;;26.50;86.70;;;;;;4939744;29;20030;-79
2021/07/14 06:13:24;;;;;;;18.15;16.05;;;26.50;87.60;;;;;;4939823;29;20024;-78
2021/07/14 06:15:50;;;;;;;18.33;16.13;;;26.60;88.00;;;;;;4939787;29;20030;-78
2021/07/14 06:18:16;;;;;;;19.50;15.38;;;26.80;84.50;;;;;;4947567;28;20023;-79
2021/07/14 06:20:41;;;;;;;19.73;16.73;;;26.80;83.50;;;;;;4976155;28;20102;-78
2021/07/14 06:23:07;;;;;;;22.42;16.20;;;27.00;86.10;;;;;;4958729;28;20114;-78
2021/07/14 06:25:33;;;;;;;20.25;16.33;;;27.10;85.20;;;;;;4976083;28;20034;-78
2021/07/14 06:28:02;;;;;;;25.45;16.05;;;27.20;83.50;;;;;;4955437;28;20031;-77
2021/07/14 06:30:28;;;;;;;17.63;15.82;;;27.30;84.40;;;;;;4956954;28;20543;-78
2021/07/14 06:32:54;;;;;;;18.20;15.98;;;27.50;84.80;;;;;;4971523;28;20027;-78
2021/07/14 06:35:21;;;;;;;18.95;16.05;;;27.60;83.20;;;;;;4949560;28;20484;-78
2021/07/14 06:37:48;;;;;;;19.33;16.15;;;27.80;81.40;;;;;;4963975;28;20546;-78
2021/07/14 06:40:14;;;;;;;20.63;16.40;;;27.90;80.60;;;;;;4971321;28;20468;-78
2021/07/14 06:42:41;;;;;;;18.48;15.07;;;28.00;80.00;;;;;;4953256;28;20122;-78
2021/07/14 06:45:08;;;;;;;18.00;15.73;;;28.00;79.50;;;;;;4951744;28;20045;-78
2021/07/14 06:47:35;;;;;;;18.55;15.63;;;28.00;78.60;;;;;;4947904;28;20027;-78
2021/07/14 06:50:01;;;;;;;18.75;15.57;;;28.00;76.90;;;;;;4973921;28;20022;-77
2021/07/14 06:52:27;;;;;;;20.08;14.85;;;28.20;78.90;;;;;;4955519;28;20381;-77
2021/07/14 06:54:53;;;;;;;18.02;15.50;;;28.30;78.40;;;;;;4956344;28;20031;-77
2021/07/14 06:57:18;;;;;;;19.55;15.10;;;28.50;77.60;;;;;;4985661;28;20039;-77
2021/07/14 06:59:44;;;;;;;20.45;15.88;;;28.60;75.90;;;;;;4988262;28;20030;-76
2021/07/14 07:02:10;;;;;;;19.80;15.57;;;28.70;76.80;;;;;;4963382;28;20058;-77
2021/07/14 07:04:35;;;;;;;21.58;15.40;;;28.80;78.60;;;;;;4973981;28;20038;-78
2021/07/14 07:07:01;;;;;;;16.95;15.15;;;28.90;75.90;;;;;;4987899;28;20031;-77
2021/07/14 07:09:27;;;;;;;18.88;14.55;;;28.80;70.50;;;;;;4988005;28;20454;-78
2021/07/14 07:11:53;;;;;;;16.23;12.85;;;29.00;69.40;;;;;;4988351;28;20528;-77
2021/07/14 07:14:19;;;;;;;14.85;13.38;;;29.20;67.80;;;;;;4972313;28;20051;-77
2021/07/14 07:16:45;;;;;;;22.85;15.88;;;29.30;66.70;;;;;;4987932;28;20081;-77
2021/07/14 07:19:10;;;;;;;16.23;14.55;;;29.30;66.90;;;;;;4970997;28;20028;-77
2021/07/14 07:21:36;;;;;;;15.93;13.40;;;29.50;66.10;;;;;;4972719;28;20030;-77
2021/07/14 07:24:02;;;;;;;21.48;14.80;;;29.60;65.40;;;;;;4955566;28;20034;-77
2021/07/14 07:26:28;;;;;;;20.60;15.05;;;29.70;67.20;;;;;;4971766;28;20388;-77
2021/07/14 07:29:04;;;;;;;16.25;14.55;;;29.90;65.30;;;;;;4971918;28;20034;-77
2021/07/14 07:31:31;;;;;;;18.63;15.63;;;29.90;64.40;;;;;;4956076;28;20081;-77
2021/07/14 07:33:57;;;;;;;18.02;14.75;;;29.90;63.80;;;;;;4955701;28;20066;-77
2021/07/14 07:36:23;;;;;;;21.70;14.38;;;30.10;65.80;;;;;;4972227;28;20038;-77
2021/07/14 07:38:49;;;;;;;16.95;14.15;;;30.20;65.70;;;;;;4972788;28;20528;-77
2021/07/14 07:41:17;;;;;;;17.08;13.25;;;30.40;64.90;;;;;;4955038;28;20110;-77
2021/07/14 07:43:43;;;;;;;14.98;13.38;;;30.60;62.60;;;;;;4973083;28;20047;-77
2021/07/14 07:46:09;;;;;;;15.18;13.57;;;30.70;59.70;;;;;;4970904;28;20045;-78
2021/07/14 07:48:36;;;;;;;16.77;13.60;;;30.90;59.90;;;;;;4972296;28;20062;-78
2021/07/14 07:51:03;;;;;;;17.70;13.43;;;31.00;59.60;;;;;;4972387;28;20476;-77
2021/07/14 07:53:29;;;;;;;23.33;14.77;;;31.10;58.70;;;;;;4957546;28;20259;-77
2021/07/14 07:55:55;;;;;;;16.88;12.88;;;31.20;59.70;;;;;;4964466;28;20037;-77
2021/07/14 07:58:20;;;;;;;21.83;12.73;;;31.40;59.90;;;;;;4964058;28;20464;-77
2021/07/14 08:00:47;;;;;;;24.17;13.88;;;31.50;57.80;;;;;;4962565;28;20054;-77
2021/07/14 08:03:14;;;;;;;20.13;13.23;;;31.50;55.10;;;;;;4963191;28;20465;-78
2021/07/14 08:05:40;;;;;;;16.77;12.45;;;31.60;55.20;;;;;;4957562;28;20034;-77
2021/07/14 08:08:06;;;;;;;23.70;13.57;;;31.60;54.00;;;;;;4954214;28;20501;-78
2021/07/14 08:10:33;;;;;;;18.40;13.90;;;31.70;55.70;;;;;;4973727;28;20058;-77
2021/07/14 08:12:59;;;;;;;15.30;12.63;;;31.80;55.00;;;;;;4951410;28;20042;-77
2021/07/14 08:15:25;;;;;;;24.23;13.98;;;31.80;55.40;;;;;;4959881;28;20022;-77
2021/07/14 08:17:51;;;;;;;18.67;13.35;;;32.00;55.50;;;;;;4965125;28;20046;-76
2021/07/14 08:20:17;;;;;;;17.52;13.25;;;32.10;54.00;;;;;;4970750;28;20055;-76
2021/07/14 08:22:43;;;;;;;22.85;13.13;;;32.10;55.60;;;;;;4967698;28;20031;-77
2021/07/14 08:25:10;;;;;;;14.85;13.27;;;32.10;54.70;;;;;;4969662;28;20046;-77
2021/07/14 08:27:37;;;;;;;18.33;12.98;;;32.20;56.20;;;;;;4968298;28;20045;-76
2021/07/14 08:30:05;;;;;;;21.08;13.27;;;32.30;52.60;;;;;;4973990;28;20037;-76
2021/07/14 08:32:31;;;;;;;19.88;14.02;;;32.40;54.00;;;;;;4974359;28;20031;-76
2021/07/14 08:34:57;;;;;;;21.08;12.98;;;32.60;54.40;;;;;;4965823;28;20026;-76
2021/07/14 08:37:24;;;;;;;17.52;13.60;;;32.80;54.30;;;;;;4934387;29;20063;-77
2021/07/14 08:39:51;;;;;;;16.80;13.38;;;32.80;54.70;;;;;;4935785;29;20027;-77
2021/07/14 08:42:20;;;;;;;19.40;13.38;;;32.80;51.40;;;;;;4959654;28;20027;-77
2021/07/14 08:44:46;;;;;;;14.55;12.95;;;32.70;52.90;;;;;;4961882;28;20039;-77
2021/07/14 08:47:13;;;;;;;14.98;12.30;;;32.70;51.70;;;;;;4961148;28;20393;-77
2021/07/14 08:49:46;;;;;;;20.73;12.15;;;32.70;53.10;;;;;;4976741;28;20106;-77
2021/07/14 08:52:12;;;;;;;19.02;11.77;;;32.70;53.50;;;;;;4961484;28;20015;-79
2021/07/14 08:54:42;;;;;;;17.88;13.10;;;32.60;52.10;;;;;;4944963;28;20015;-78
2021/07/14 08:57:13;;;;;;;23.35;13.82;;;32.50;51.30;;;;;;4948561;28;20031;-76
2021/07/14 08:59:39;;;;;;;16.95;13.25;;;32.40;53.50;;;;;;4972095;28;20023;-77
2021/07/14 09:02:06;;;;;;;16.88;13.93;;;32.40;54.10;;;;;;4970148;28;20062;-77
2021/07/14 09:04:32;;;;;;;18.73;12.10;;;32.70;53.60;;;;;;4972065;28;20042;-76
2021/07/14 09:06:58;;;;;;;16.75;12.57;;;32.80;52.30;;;;;;4948235;28;20023;-77
2021/07/14 09:09:24;;;;;;;22.08;13.88;;;32.90;51.20;;;;;;4969837;28;20043;-76
2021/07/14 09:11:58;;;;;;;26.90;14.57;;;33.10;51.20;;;;;;4970845;28;20477;-77
2021/07/14 09:14:35;;;;;;;15.77;12.85;;;33.30;52.10;;;;;;4971101;28;20034;-76
2021/07/14 09:17:22;;;;;;;21.23;13.77;;;33.50;50.50;;;;;;4971734;28;20041;-77
2021/07/14 09:20:03;;;;;;;23.85;13.23;;;33.30;50.90;;;;;;4962023;28;20031;-79
2021/07/14 09:22:33;;;;;;;19.25;13.15;;;33.30;51.30;;;;;;4960176;28;20096;-75
2021/07/14 09:25:06;;;;;;;17.65;13.68;;;33.30;50.20;;;;;;4944506;28;20093;-77
2021/07/14 09:27:36;;;;;;;18.83;13.18;;;33.40;50.40;;;;;;4945539;28;20026;-77
2021/07/14 09:30:08;;;;;;;17.30;12.52;;;33.70;49.80;;;;;;4961638;28;20071;-78
2021/07/14 09:33:04;;;;;;;21.55;13.30;;;33.60;50.40;;;;;;4954252;28;20067;-77
2021/07/14 09:35:42;;;;;;;18.45;13.32;;;33.70;50.10;;;;;;4954338;28;20085;-78
2021/07/14 09:38:17;;;;;;;18.58;12.82;;;33.80;50.00;;;;;;4934123;28;20121;-78
2021/07/14 09:40:48;;;;;;;23.88;14.35;;;33.90;50.30;;;;;;4807865;28;140640;-77
2021/07/14 09:43:15;;;;;;;28.55;14.80;;;34.00;50.20;;;;;;4961651;28;20030;-78
2021/07/14 09:46:01;;;;;;;24.27;14.80;;;34.00;52.00;;;;;;4963864;28;20463;-77
2021/07/14 09:48:28;;;;;;;20.98;14.68;;;33.80;50.10;;;;;;4959234;28;20042;-77
2021/07/14 09:51:06;;;;;;;19.98;13.98;;;33.90;53.20;;;;;;4946481;28;20019;-77
2021/07/14 09:53:34;;;;;;;23.70;13.27;;;33.70;50.10;;;;;;4962395;28;20118;-77
2021/07/14 09:56:16;;;;;;;20.23;13.63;;;33.50;50.30;;;;;;4961607;28;20027;-78
2021/07/14 09:58:43;;;;;;;19.95;13.32;;;33.40;50.90;;;;;;4964706;28;20031;-78
2021/07/14 10:01:15;;;;;;;17.95;12.20;;;33.50;50.20;;;;;;4962769;28;20019;-78
2021/07/14 10:03:51;;;;;;;14.88;10.40;;;33.30;46.70;;;;;;4957204;28;20054;-78
2021/07/14 10:06:17;;;;;;;10.85;9.77;;;33.40;46.80;;;;;;4960341;28;20018;-77
2021/07/14 10:08:47;;;;;;;16.30;10.75;;;33.30;44.20;;;;;;4974271;28;20039;-78
2021/07/14 10:11:23;;;;;;;16.23;10.68;;;33.50;44.90;;;;;;4960704;28;20499;-78
2021/07/14 10:14:08;;;;;;;13.90;10.05;;;33.60;43.00;;;;;;4961041;28;20130;-78
2021/07/14 10:16:36;;;;;;;13.20;9.80;;;33.80;42.70;;;;;;4960967;28;20492;-78
2021/07/14 10:19:06;;;;;;;20.88;12.23;;;34.00;43.60;;;;;;4964284;28;20035;-79
2021/07/14 10:21:37;;;;;;;17.40;10.85;;;34.10;44.20;;;;;;4945644;28;20155;-79
2021/07/14 10:24:05;;;;;;;13.05;11.43;;;34.30;43.60;;;;;;4967238;28;20047;-79
2021/07/14 10:26:34;;;;;;;16.65;10.48;;;34.40;44.80;;;;;;4962004;28;20019;-78
2021/07/14 10:29:00;;;;;;;16.88;10.82;;;34.10;44.60;;;;;;4964964;28;20041;-78
2021/07/14 10:31:26;;;;;;;14.45;11.07;;;34.00;44.40;;;;;;4959614;28;20023;-78
2021/07/14 10:33:55;;;;;;;16.15;10.57;;;33.90;44.40;;;;;;4948716;29;20496;-78
2021/07/14 10:36:28;;;;;;;14.20;11.50;;;33.90;43.90;;;;;;4957277;28;20477;-78
2021/07/14 10:38:58;;;;;;;16.80;12.48;;;34.00;44.50;;;;;;4957336;28;20074;-79
2021/07/14 10:41:29;;;;;;;14.25;11.40;;;34.00;44.60;;;;;;4956760;28;20049;-78
2021/07/14 10:43:55;;;;;;;16.02;10.95;;;33.90;43.10;;;;;;4961485;28;20113;-79
2021/07/14 10:46:23;;;;;;;12.95;9.13;;;33.80;45.00;;;;;;4944473;28;20495;-79
2021/07/14 10:48:51;;;;;;;15.95;10.82;;;33.80;44.20;;;;;;4959385;28;20046;-79
2021/07/14 10:51:17;;;;;;;13.77;10.80;;;33.80;42.90;;;;;;4942095;29;20042;-79
2021/07/14 10:53:48;;;;;;;11.25;10.23;;;33.90;43.00;;;;;;4956034;28;20035;-78
2021/07/14 10:56:15;;;;;;;11.02;10.00;;;33.90;43.30;;;;;;4959401;28;20020;-78
2021/07/14 10:58:42;;;;;;;13.45;10.25;;;33.80;41.10;;;;;;4943829;28;20034;-76
2021/07/14 11:01:09;;;;;;;13.05;10.85;;;33.90;43.10;;;;;;4962462;28;20077;-79
2021/07/14 11:03:36;;;;;;;13.63;10.70;;;33.90;43.80;;;;;;4945644;28;20039;-79
2021/07/14 11:06:09;;;;;;;12.95;11.15;;;33.90;43.70;;;;;;4959968;28;20028;-79
2021/07/14 11:08:54;;;;;;;12.88;11.30;;;33.80;44.50;;;;;;4944655;28;20037;-79
2021/07/14 11:11:21;;;;;;;13.90;11.02;;;33.60;44.70;;;;;;4962300;28;20038;-79
2021/07/14 11:14:08;;;;;;;14.80;11.73;;;33.70;47.20;;;;;;4960714;28;20401;-77
2021/07/14 11:16:35;;;;;;;15.05;12.40;;;33.70;46.90;;;;;;4944578;28;20473;-78
2021/07/14 11:19:17;;;;;;;15.07;13.10;;;33.50;46.70;;;;;;4961269;28;20491;-79
2021/07/14 11:21:49;;;;;;;18.20;12.73;;;33.40;47.30;;;;;;4963516;28;20054;-77
2021/07/14 11:24:41;;;;;;;15.45;12.85;;;33.50;49.20;;;;;;4960616;28;20065;-77
2021/07/14 11:27:22;;;;;;;16.33;13.75;;;33.10;48.90;;;;;;4974947;28;20552;-78
2021/07/14 11:29:49;;;;;;;15.35;13.88;;;33.10;48.80;;;;;;4969817;28;20086;-78
2021/07/14 11:32:33;;;;;;;17.15;12.55;;;33.00;49.30;;;;;;4959837;28;20034;-77
2021/07/14 11:35:05;;;;;;;15.95;13.85;;;33.00;50.40;;;;;;4961584;28;20047;-78
2021/07/14 11:37:39;;;;;;;18.13;14.32;;;33.20;50.80;;;;;;4959022;28;20020;-78
2021/07/14 11:40:17;;;;;;;19.27;15.85;;;33.30;52.60;;;;;;4957724;28;20037;-78
2021/07/14 11:43:09;;;;;;;19.67;16.30;;;33.30;53.10;;;;;;4959511;28;20114;-78
2021/07/14 11:45:38;;;;;;;;;;;33.10;52.80;;;;;;4954524;28;20054;-78
2021/07/14 11:48:06;;;;;;;22.75;16.67;;;32.80;51.70;;;;;;4960300;28;20261;-78
2021/07/14 11:50:44;;;;;;;20.20;16.73;;;32.70;52.60;;;;;;4961345;28;20035;-78
2021/07/14 11:53:25;;;;;;;20.48;16.65;;;32.90;53.60;;;;;;4972529;28;20434;-78
2021/07/14 11:56:14;;;;;;;18.55;16.10;;;33.10;53.40;;;;;;4958463;28;20034;-79
2021/07/14 11:59:02;;;;;;;18.23;16.35;;;32.80;51.30;;;;;;4961816;28;20110;-79
2021/07/14 12:01:42;;;;;;;22.00;15.68;;;32.90;51.70;;;;;;4965658;28;20039;-79
2021/07/14 12:04:09;;;;;;;19.45;15.70;;;32.80;50.70;;;;;;4957380;28;20044;-79
2021/07/14 12:06:35;;;;;;;22.98;15.73;;;33.00;51.50;;;;;;4944091;28;20098;-79
2021/07/14 12:09:02;;;;;;;20.13;16.27;;;33.10;50.60;;;;;;4962493;28;20038;-79
2021/07/14 12:11:28;;;;;;;25.13;16.40;;;33.00;50.80;;;;;;4943440;28;20030;-79
2021/07/14 12:13:56;;;;;;;21.48;16.05;;;33.20;51.80;;;;;;4969121;28;20065;-79
2021/07/14 12:16:29;;;;;;;21.05;16.77;;;33.30;51.10;;;;;;4940707;28;20027;-79
2021/07/14 12:18:56;;;;;;;19.15;15.02;;;33.30;52.00;;;;;;4957878;28;20030;-80
2021/07/14 12:21:41;;;;;;;18.52;15.70;;;33.00;50.80;;;;;;4943172;28;20022;-78
2021/07/14 12:24:32;;;;;;;17.63;15.73;;;33.10;51.00;;;;;;4959733;28;20433;-80
2021/07/14 12:27:07;;;;;;;19.13;15.55;;;33.10;50.40;;;;;;4957009;28;20540;-78
2021/07/14 12:29:33;;;;;;;21.25;16.33;;;33.10;52.40;;;;;;4960240;28;20051;-78
2021/07/14 12:32:00;;;;;;;21.52;16.77;;;33.00;52.40;;;;;;4962323;28;20124;-78
2021/07/14 12:34:30;;;;;;;21.65;16.52;;;33.00;54.20;;;;;;4943041;28;20448;-81
2021/07/14 12:36:57;;;;;;;21.65;16.92;;;33.10;55.20;;;;;;4961737;28;20027;-78
2021/07/14 12:39:28;;;;;;;27.20;14.88;;;33.10;54.70;;;;;;4945790;28;20026;-80
2021/07/14 12:41:59;;;;;;;21.77;15.90;;;33.20;53.70;;;;;;4946541;28;20046;-78
2021/07/14 12:44:25;;;;;;;23.10;15.50;;;33.20;54.20;;;;;;4962958;28;20039;-78